Time;durP1;ratioP1;P1;durP2;ratioP2;P2;SDS_P1;SDS_P2;PMS_P1;PMS_P2;Temp;Humidity;BMP_temperature;BMP_pressure;BME280_temperature;BME280_humidity;BME280_pressure;Samples;Min_cycle;Max_cycle;Signal;HPM_P1;HPM_P2
2021/09/17 00:01:41;;;;;;;;;96.25;92.50;;;;;26.37;44.70;101046.09;5034278;28;46189;-66
2021/09/17 00:04:06;;;;;;;;;105.50;102.75;;;;;26.37;44.41;101040.63;5052694;28;45558;-65
2021/09/17 00:06:31;;;;;;;;;130.00;121.67;;;;;26.33;44.76;101033.56;5052774;28;45766;-66
2021/09/17 00:08:57;;;;;;;;;86.00;83.67;;;;;26.34;44.73;101032.63;5049506;28;45568;-65
2021/09/17 00:11:24;;;;;;;;;94.67;93.00;;;;;26.31;45.29;101036.34;5052205;28;45507;-65
2021/09/17 00:13:49;;;;;;;;;77.00;67.25;;;;;26.34;44.69;101035.34;5051715;28;45524;-65
2021/09/17 00:16:15;;;;;;;;;70.25;60.75;;;;;26.33;44.67;101037.16;5033220;28;45441;-65
2021/09/17 00:18:40;;;;;;;;;91.50;88.50;;;;;26.32;44.74;101029.09;5052102;28;45485;-65
2021/09/17 00:21:06;;;;;;;;;135.00;130.33;;;;;26.33;44.96;101028.09;5051851;28;45429;-65
2021/09/17 00:23:32;;;;;;;;;99.67;95.33;;;;;26.32;45.18;101027.22;5052069;28;45726;-65
2021/09/17 00:25:58;;;;;;;;;77.50;73.50;;;;;26.26;45.07;101010.28;5051886;28;45485;-66
2021/09/17 00:28:23;;;;;;;;;81.50;78.25;;;;;26.28;45.11;101025.59;5051836;28;45500;-66
2021/09/17 00:30:49;;;;;;;;;73.25;62.75;;;;;26.29;44.65;101021.03;5051537;28;45563;-65
2021/09/17 00:33:14;;;;;;;;;91.00;89.00;;;;;26.29;44.96;101027.34;5051324;28;45712;-65
2021/09/17 00:35:41;;;;;;;;;108.00;104.00;;;;;26.28;45.28;101019.28;5051459;28;45409;-65
2021/09/17 00:38:06;;;;;;;;;114.00;109.33;;;;;26.29;44.56;101027.34;5052398;28;45498;-65
2021/09/17 00:40:32;;;;;;;;;117.33;115.67;;;;;26.28;44.99;101019.28;5032952;28;47395;-65
2021/09/17 00:42:58;;;;;;;;;138.67;131.33;;;;;26.27;45.35;101021.09;5051348;28;45457;-65
2021/09/17 00:45:24;;;;;;;;;185.00;178.50;;;;;26.27;45.40;101023.81;5051314;28;45908;-66
2021/09/17 00:47:50;;;;;;;;;83.75;82.25;;;;;26.26;45.07;101015.75;5051792;28;45468;-65
2021/09/17 00:50:18;;;;;;;;;117.33;115.33;;;;;26.25;44.79;101020.28;5051358;28;46306;-65
2021/09/17 00:52:46;;;;;;;;;128.33;124.67;;;;;26.25;45.28;101014.81;5051224;28;45459;-65
2021/09/17 00:55:12;;;;;;;;;82.25;78.00;;;;;26.24;44.68;101013.06;5051673;28;45484;-65
2021/09/17 00:57:38;;;;;;;;;98.00;96.33;;;;;26.24;44.64;101015.81;5033129;28;45565;-65
2021/09/17 01:00:08;;;;;;;;;125.00;119.00;;;;;26.24;44.70;101012.16;5051413;28;45645;-66
2021/09/17 01:02:34;;;;;;;;;96.25;93.00;;;;;26.24;45.01;101012.16;5037601;28;45992;-68
2021/09/17 01:05:00;;;;;;;;;152.75;145.50;;;;;26.22;44.66;101006.81;5053762;28;45508;-68
2021/09/17 01:07:26;;;;;;;;;111.00;105.33;;;;;26.23;45.22;101010.41;5053291;28;45409;-68
2021/09/17 01:09:52;;;;;;;;;150.00;141.50;;;;;26.22;45.08;101008.63;5053248;28;45864;-68
2021/09/17 01:12:18;;;;;;;;;89.25;84.00;;;;;26.21;45.03;100999.56;5035069;28;45394;-68
2021/09/17 01:14:44;;;;;;;;;78.00;75.50;;;;;26.21;44.66;101001.41;5053455;28;45603;-68
2021/09/17 01:17:09;;;;;;;;;124.67;119.33;;;;;26.20;45.16;101003.28;5053607;28;44842;-67
2021/09/17 01:19:36;;;;;;;;;187.25;175.50;;;;;26.19;45.54;100995.16;5053250;28;46218;-68
2021/09/17 01:22:05;;;;;;;;;61.75;49.25;;;;;26.18;44.53;100996.09;5035323;28;45565;-67
2021/09/17 01:24:32;;;;;;;;;138.25;133.00;;;;;26.19;44.71;100997.88;5034886;28;45524;-67
2021/09/17 01:26:58;;;;;;;;;81.75;76.50;;;;;26.17;44.71;100992.50;5053507;28;45488;-67
2021/09/17 01:29:24;;;;;;;;;144.00;135.00;;;;;26.16;45.05;100988.00;5053797;28;45632;-67
2021/09/17 01:31:50;;;;;;;;;115.33;111.33;;;;;26.17;44.71;100983.44;5053321;28;45509;-67
2021/09/17 01:34:19;;;;;;;;;152.33;147.00;;;;;26.16;44.53;100974.38;5053670;28;45504;-67
2021/09/17 01:36:46;;;;;;;;;154.25;146.50;;;;;26.15;45.08;100980.78;5053870;28;45762;-68
2021/09/17 01:39:12;;;;;;;;;91.25;88.75;;;;;26.14;44.53;100973.56;5031631;28;46004;-67
2021/09/17 01:41:38;;;;;;;;;77.50;73.75;;;;;26.07;44.61;100962.06;5033531;28;45528;-67
2021/09/17 01:44:03;;;;;;;;;86.75;85.25;;;;;26.13;44.81;100969.94;5033693;28;45408;-68
2021/09/17 01:46:29;;;;;;;;;116.00;112.67;;;;;26.13;44.51;100971.78;5033641;28;45417;-67
2021/09/17 01:48:54;;;;;;;;;117.67;114.67;;;;;26.11;44.78;100958.22;5032948;28;45433;-67
2021/09/17 01:51:20;;;;;;;;;87.25;83.00;;;;;26.12;44.95;100960.00;5032950;28;45384;-68
2021/09/17 01:53:45;;;;;;;;;95.75;93.00;;;;;26.10;45.03;100956.47;5033065;28;45364;-68
2021/09/17 01:56:11;;;;;;;;;101.50;98.50;;;;;26.10;44.51;100952.88;5031925;28;45513;-68
2021/09/17 01:58:37;;;;;;;;;161.00;154.25;;;;;26.10;44.98;100961.06;5032324;28;45574;-68
2021/09/17 02:01:04;;;;;;;;;58.75;47.50;;;;;26.08;44.79;100952.94;5033132;28;45426;-68
2021/09/17 02:03:29;;;;;;;;;98.67;97.67;;;;;26.08;44.56;100952.06;5039352;28;45540;-68
2021/09/17 02:05:55;;;;;;;;;169.00;158.00;;;;;26.08;44.83;100947.47;5052769;28;45460;-68
2021/09/17 02:08:21;;;;;;;;;113.33;109.00;;;;;26.04;45.09;100948.59;5052404;28;45580;-68
2021/09/17 02:10:48;;;;;;;;;91.00;87.67;;;;;26.08;45.04;100952.06;5052378;28;45601;-68
2021/09/17 02:13:19;;;;;;;;;111.67;108.00;;;;;26.06;44.67;100946.66;5052841;28;45728;-68
2021/09/17 02:15:46;;;;;;;;;142.00;135.00;;;;;26.07;44.98;100947.53;5052966;28;45722;-68
2021/09/17 02:18:11;;;;;;;;;87.25;86.25;;;;;26.04;45.07;100934.09;5052432;28;46096;-68
2021/09/17 02:20:37;;;;;;;;;79.25;76.75;;;;;26.01;45.13;100932.34;5052356;28;45503;-68
2021/09/17 02:23:02;;;;;;;;;109.67;102.00;;;;;26.04;45.33;100936.81;5052972;28;45487;-67
2021/09/17 02:25:29;;;;;;;;;124.67;116.33;;;;;26.04;45.19;100928.63;5052558;28;44976;-68
2021/09/17 02:27:55;;;;;;;;;137.67;135.67;;;;;26.02;45.02;100925.97;5052429;28;46072;-69
2021/09/17 02:30:20;;;;;;;;;85.50;82.00;;;;;26.03;44.69;100932.28;5052496;28;45454;-67
2021/09/17 02:32:45;;;;;;;;;75.50;67.75;;;;;26.04;44.65;100929.50;5034183;28;45481;-68
2021/09/17 02:35:12;;;;;;;;;79.50;77.25;;;;;26.02;45.07;100925.97;5052652;28;44912;-68
2021/09/17 02:37:38;;;;;;;;;118.33;111.67;;;;;26.02;44.87;100931.41;5052403;28;47239;-68
2021/09/17 02:40:04;;;;;;;;;124.00;120.00;;;;;26.01;44.95;100935.09;5051976;28;45456;-68
2021/09/17 02:42:29;;;;;;;;;90.25;84.75;;;;;25.99;45.22;100926.09;5052081;28;45548;-68
2021/09/17 02:44:55;;;;;;;;;75.25;70.50;;;;;25.99;44.80;100926.09;5052456;28;45453;-68
2021/09/17 02:47:21;;;;;;;;;124.33;115.33;;;;;25.99;45.21;100928.81;5034142;28;46913;-68
2021/09/17 02:49:46;;;;;;;;;76.00;70.25;;;;;25.98;44.65;100924.34;5051921;28;45389;-68
2021/09/17 02:52:11;;;;;;;;;72.75;64.75;;;;;25.98;44.84;100924.34;5052647;28;45967;-68
2021/09/17 02:54:37;;;;;;;;;134.00;131.33;;;;;25.98;45.04;100924.34;5052218;28;45531;-68
2021/09/17 02:57:02;;;;;;;;;101.50;98.50;;;;;25.98;44.66;100920.75;5033827;28;45454;-68
2021/09/17 02:59:28;;;;;;;;;118.33;114.67;;;;;25.97;45.15;100916.25;5052149;28;45390;-68
2021/09/17 03:01:53;;;;;;;;;135.33;127.67;;;;;25.96;44.73;100915.38;5052091;28;45399;-67
2021/09/17 03:04:19;;;;;;;;;112.00;104.67;;;;;25.96;45.17;100912.63;5052922;28;45473;-68
2021/09/17 03:06:44;;;;;;;;;100.67;95.67;;;;;25.95;44.75;100908.13;5051776;28;46268;-68
2021/09/17 03:09:10;;;;;;;;;162.75;159.00;;;;;25.95;44.71;100902.69;5052045;28;45373;-68
2021/09/17 03:11:35;;;;;;;;;171.75;160.00;;;;;25.93;45.08;100900.06;5052249;28;45326;-67
2021/09/17 03:14:00;;;;;;;;;78.25;74.50;;;;;25.93;44.62;100902.78;5051756;28;45476;-67
2021/09/17 03:16:26;;;;;;;;;105.00;103.33;;;;;25.93;44.86;100904.59;5052003;28;46140;-68
2021/09/17 03:18:51;;;;;;;;;102.33;97.33;;;;;25.93;44.63;100894.59;5033909;28;45746;-68
2021/09/17 03:21:17;;;;;;;;;128.33;124.00;;;;;25.93;44.71;100896.41;5052569;28;45412;-68
2021/09/17 03:23:42;;;;;;;;;98.25;94.25;;;;;25.92;45.04;100894.66;5052600;28;45335;-68
2021/09/17 03:26:08;;;;;;;;;88.25;84.75;;;;;25.91;44.95;100890.16;5051653;28;45565;-68
2021/09/17 03:28:33;;;;;;;;;68.75;57.75;;;;;25.92;44.92;100886.50;5052157;28;44998;-68
2021/09/17 03:31:05;;;;;;;;;84.50;78.75;;;;;25.91;44.98;100884.69;5033868;28;45390;-68
2021/09/17 03:33:31;;;;;;;;;70.75;63.25;;;;;25.91;44.78;100890.16;5052157;28;45343;-68
2021/09/17 03:35:57;;;;;;;;;203.00;195.25;;;;;25.90;44.81;100885.69;5051376;28;45979;-68
2021/09/17 03:38:22;;;;;;;;;130.67;120.67;;;;;25.89;45.07;100881.13;5051652;28;45545;-68
2021/09/17 03:40:50;;;;;;;;;122.33;116.00;;;;;25.89;44.68;100886.59;5051263;28;45449;-68
2021/09/17 03:43:23;;;;;;;;;80.00;77.50;;;;;25.88;44.80;100879.38;5051533;28;45562;-66
2021/09/17 03:45:48;;;;;;;;;112.50;106.25;;;;;25.88;44.70;100880.25;5050860;28;45402;-67
2021/09/17 03:48:14;;;;;;;;;81.75;78.50;;;;;25.88;44.80;100882.13;5050969;28;45662;-67
2021/09/17 03:50:40;;;;;;;;;213.00;202.50;;;;;25.87;45.25;100885.78;5051086;28;45444;-67
2021/09/17 03:53:09;;;;;;;;;104.00;100.33;;;;;25.86;44.69;100887.63;5051356;28;45390;-67
2021/09/17 03:55:35;;;;;;;;;91.75;88.50;;;;;25.86;44.70;100886.75;5050879;28;45472;-67
2021/09/17 03:58:02;;;;;;;;;94.75;87.00;;;;;25.85;44.76;100888.56;5050744;28;45392;-67
2021/09/17 04:00:27;;;;;;;;;179.00;171.25;;;;;25.85;44.95;100880.38;5050821;28;45509;-67
2021/09/17 04:02:54;;;;;;;;;150.50;144.00;;;;;25.85;45.11;100884.97;5051146;28;45429;-68
2021/09/17 04:05:19;;;;;;;;;75.75;68.25;;;;;25.85;44.95;100879.50;5050464;28;46146;-68
2021/09/17 04:07:45;;;;;;;;;137.75;135.50;;;;;25.84;44.71;100888.66;5050927;28;45434;-68
2021/09/17 04:10:12;;;;;;;;;99.67;96.33;;;;;25.83;44.92;100882.31;5050763;28;45656;-68
2021/09/17 04:12:38;;;;;;;;;103.00;102.00;;;;;25.84;44.63;100880.50;5047918;28;45551;-68
2021/09/17 04:15:05;;;;;;;;;85.75;83.25;;;;;25.83;45.09;100882.31;5032308;28;47133;-68
2021/09/17 04:17:31;;;;;;;;;88.75;86.50;;;;;25.83;44.93;100881.44;5050756;28;45402;-68
2021/09/17 04:19:56;;;;;;;;;84.50;81.50;;;;;25.82;44.91;100868.78;5051656;28;45429;-68
2021/09/17 04:22:21;;;;;;;;;133.33;127.33;;;;;25.81;45.00;100883.34;5054640;28;45469;-68
2021/09/17 04:24:47;;;;;;;;;220.25;209.00;;;;;25.81;44.98;100883.34;5053855;28;45383;-68
2021/09/17 04:27:12;;;;;;;;;69.25;58.50;;;;;25.81;44.53;100881.50;5053743;28;45395;-68
2021/09/17 04:29:38;;;;;;;;;94.00;91.75;;;;;25.80;44.65;100878.88;5053929;28;45631;-68
2021/09/17 04:32:04;;;;;;;;;64.25;51.75;;;;;25.80;44.88;100881.59;5035485;28;45629;-68
2021/09/17 04:34:29;;;;;;;;;121.00;114.67;;;;;25.80;44.97;100874.28;5053308;28;45638;-68
2021/09/17 04:36:55;;;;;;;;;140.33;131.67;;;;;25.79;45.23;100882.53;5053542;28;45452;-66
2021/09/17 04:39:21;;;;;;;;;99.33;95.33;;;;;25.75;44.76;100871.78;5053907;28;45412;-68
2021/09/17 04:41:47;;;;;;;;;187.00;178.25;;;;;25.78;45.20;100876.22;5053478;28;45459;-68
2021/09/17 04:44:12;;;;;;;;;95.75;90.75;;;;;25.78;44.94;100878.94;5054813;28;45440;-68
2021/09/17 04:46:38;;;;;;;;;94.00;89.00;;;;;25.77;45.01;100870.81;5053909;28;45458;-68
2021/09/17 04:49:03;;;;;;;;;76.25;73.00;;;;;25.78;44.94;100878.06;5053780;28;46058;-65
2021/09/17 04:51:30;;;;;;;;;125.33;120.00;;;;;25.78;44.87;100869.88;5054052;28;45673;-68
2021/09/17 04:53:56;;;;;;;;;126.33;120.33;;;;;25.78;45.18;100878.06;5053391;28;45423;-68
2021/09/17 04:56:21;;;;;;;;;162.50;153.50;;;;;25.77;45.11;100877.16;5053599;28;45352;-67
2021/09/17 04:58:46;;;;;;;;;154.75;148.00;;;;;25.75;44.92;100870.88;5053651;28;45478;-65
2021/09/17 05:01:12;;;;;;;;;187.25;181.50;;;;;25.74;45.03;100875.47;5053794;28;45505;-67
2021/09/17 05:03:37;;;;;;;;;94.25;91.50;;;;;25.75;44.87;100879.06;5035121;28;47456;-67
2021/09/17 05:06:03;;;;;;;;;95.25;90.50;;;;;25.73;44.89;100868.25;5053503;28;45459;-67
2021/09/17 05:08:28;;;;;;;;;73.25;64.75;;;;;25.74;44.69;100864.56;5035389;28;45490;-68
2021/09/17 05:10:53;;;;;;;;;252.75;243.50;;;;;25.72;45.44;100874.66;5054002;28;45432;-68
2021/09/17 05:13:19;;;;;;;;;124.33;117.67;;;;;25.74;45.03;100878.19;5053276;28;45539;-67
2021/09/17 05:15:44;;;;;;;;;162.25;155.25;;;;;25.72;44.89;100869.19;5034969;28;45561;-68
2021/09/17 05:18:09;;;;;;;;;139.67;134.67;;;;;25.73;44.96;100870.97;5053185;28;45485;-68
2021/09/17 05:20:35;;;;;;;;;98.67;97.00;;;;;25.73;45.04;100865.53;5053091;28;45449;-67
2021/09/17 05:23:02;;;;;;;;;111.00;106.67;;;;;25.71;44.84;100864.72;5053119;28;46408;-68
2021/09/17 05:25:28;;;;;;;;;176.75;170.75;;;;;25.71;45.23;100864.72;5053166;28;45499;-68
2021/09/17 05:27:53;;;;;;;;;161.00;153.75;;;;;25.71;44.97;100862.00;5053305;28;45495;-68
2021/09/17 05:30:18;;;;;;;;;125.00;121.33;;;;;25.72;44.85;100869.19;5053306;28;45648;-68
2021/09/17 05:32:44;;;;;;;;;96.25;91.25;;;;;25.65;44.71;100859.56;5051903;28;45449;-68
2021/09/17 05:35:11;;;;;;;;;109.67;107.33;;;;;25.67;44.87;100865.81;5052732;28;45422;-68
2021/09/17 05:37:36;;;;;;;;;161.00;151.25;;;;;25.69;44.98;100869.38;5053344;28;45203;-68
2021/09/17 05:40:06;;;;;;;;;72.00;61.75;;;;;25.71;44.61;100866.53;5034982;28;45549;-66
2021/09/17 05:42:31;;;;;;;;;85.25;79.50;;;;;25.70;44.63;100864.78;5033881;28;45869;-67
2021/09/17 05:44:56;;;;;;;;;91.75;88.75;;;;;25.69;44.72;100866.63;5052744;28;45745;-67
2021/09/17 05:47:22;;;;;;;;;103.00;99.75;;;;;25.69;44.76;100869.38;5052769;28;45500;-69
2021/09/17 05:49:47;;;;;;;;;182.25;172.00;;;;;25.70;44.93;100862.06;5052763;28;45478;-67
2021/09/17 05:52:13;;;;;;;;;140.67;134.00;;;;;25.68;45.25;100859.41;5052342;28;45467;-67
2021/09/17 05:54:39;;;;;;;;;133.67;123.67;;;;;25.68;44.74;100869.44;5053392;28;45859;-70
2021/09/17 05:57:05;;;;;;;;;215.75;207.75;;;;;25.62;45.77;100865.16;5034608;28;45476;-69
2021/09/17 05:59:31;;;;;;;;;177.00;169.25;;;;;25.55;45.52;100864.56;5054306;28;45421;-69
2021/09/17 06:01:57;;;;;;;;;175.25;168.00;;;;;25.47;45.96;100872.19;5034984;28;47822;-69
2021/09/17 06:04:23;;;;;;;;;122.33;116.67;;;;;25.39;45.62;100868.94;5052368;28;45675;-70
2021/09/17 06:06:48;;;;;;;;;151.25;144.75;;;;;25.31;45.73;100874.72;5054817;28;45428;-69
2021/09/17 06:09:14;;;;;;;;;104.67;101.67;;;;;25.22;45.46;100869.69;5036834;28;45437;-70
2021/09/17 06:11:39;;;;;;;;;101.25;99.75;;;;;25.13;45.58;100864.63;5052599;28;46142;-70
2021/09/17 06:14:05;;;;;;;;;56.50;46.75;;;;;25.00;44.82;100868.84;5052190;28;45517;-70
2021/09/17 06:16:30;;;;;;;;;163.75;158.25;;;;;24.82;45.68;100865.97;5049381;28;45666;-70
2021/09/17 06:19:02;;;;;;;;;57.00;46.75;;;;;24.77;45.35;100859.84;5052968;28;45486;-70
2021/09/17 06:21:28;;;;;;;;;184.75;175.75;;;;;24.74;46.17;100866.31;5033822;28;47244;-70
2021/09/17 06:23:53;;;;;;;;;132.33;124.33;;;;;24.73;45.83;100860.94;5052207;28;45385;-70
2021/09/17 06:26:19;;;;;;;;;193.25;179.75;;;;;24.70;46.12;100855.63;5052367;28;45843;-69
2021/09/17 06:28:44;;;;;;;;;411.25;391.00;;;;;24.67;46.65;100853.03;5052169;28;45468;-70
2021/09/17 06:31:10;;;;;;;;;90.25;85.25;;;;;24.66;46.13;100853.97;5052193;28;46094;-70
2021/09/17 06:33:35;;;;;;;;;247.00;229.75;;;;;24.65;46.67;100846.78;5051930;28;45508;-70
2021/09/17 06:36:00;;;;;;;;;155.33;152.00;;;;;24.60;46.02;100852.41;5052089;28;45503;-69
2021/09/17 06:38:27;;;;;;;;;64.75;52.75;;;;;24.57;46.14;100849.81;5052090;28;44965;-70
2021/09/17 06:40:53;;;;;;;;;324.00;307.80;;;;;24.53;46.81;100846.34;5052173;28;45464;-70
2021/09/17 06:43:18;;;;;;;;;224.00;209.67;;;;;24.46;46.54;100852.97;5051618;28;45540;-70
2021/09/17 06:45:44;;;;;;;;;377.00;353.00;;;;;24.39;46.99;100851.44;5052029;28;45522;-69
2021/09/17 06:48:09;;;;;;;;;129.33;121.00;;;;;24.35;47.06;100847.09;5053768;28;45369;-69
2021/09/17 06:50:36;;;;;;;;;143.67;137.33;;;;;24.33;47.22;100846.28;5051371;28;46164;-70
2021/09/17 06:53:01;;;;;;;;;149.67;141.67;;;;;24.32;47.17;100844.53;5035495;28;45523;-69
2021/09/17 06:55:29;;;;;;;;;166.50;159.75;;;;;24.33;47.24;100846.28;5052866;28;45547;-69
2021/09/17 06:57:59;;;;;;;;;278.00;261.50;;;;;24.28;47.48;100848.28;5052167;28;45431;-69
2021/09/17 07:00:28;;;;;;;;;478.60;450.20;;;;;24.25;48.21;100851.13;5052586;28;45386;-69
2021/09/17 07:02:56;;;;;;;;;61.00;48.25;;;;;24.20;46.43;100845.00;5035899;28;45959;-70
2021/09/17 07:05:23;;;;;;;;;340.40;322.20;;;;;24.12;47.59;100843.50;5032164;28;45451;-70
2021/09/17 07:07:49;;;;;;;;;90.75;87.75;;;;;24.11;47.23;100843.53;5051944;28;45657;-71
2021/09/17 07:10:18;;;;;;;;;141.67;135.33;;;;;24.10;47.11;100841.78;5053283;28;45901;-69
2021/09/17 07:12:46;;;;;;;;;86.25;81.25;;;;;24.11;47.45;100841.69;5033239;28;45423;-69
2021/09/17 07:15:14;;;;;;;;;48.25;40.00;;;;;24.17;47.52;100844.16;5052570;28;45491;-70
2021/09/17 07:17:40;;;;;;;;;183.25;175.00;;;;;24.21;48.38;100841.34;5052867;28;45432;-71
2021/09/17 07:20:06;;;;;;;;;113.00;107.33;;;;;24.20;47.68;100839.56;5053370;28;45483;-66
2021/09/17 07:22:32;;;;;;;;;37.33;32.67;;;;;24.25;47.37;100845.69;5049229;28;47002;-66
2021/09/17 07:24:57;;;;;;;;;106.33;101.33;;;;;24.30;47.58;100846.41;5041560;28;45474;-65
2021/09/17 07:27:24;;;;;;;;;320.00;295.00;;;;;24.31;48.35;100848.16;5031310;28;45461;-66
2021/09/17 07:32:34;;;;;;;;;323.20;304.60;;;;;24.35;48.60;100847.97;5047961;28;45487;-65
2021/09/17 07:35:00;;;;;;;;;123.33;118.00;;;;;24.36;48.02;100836.16;5040953;28;45508;-66
2021/09/17 07:37:25;;;;;;;;;89.25;83.25;;;;;24.38;47.31;100838.81;5054902;28;45345;-65
2021/09/17 07:39:52;;;;;;;;;208.50;196.75;;;;;24.43;47.85;100846.78;5070801;28;45448;-65
2021/09/17 07:42:18;;;;;;;;;187.33;180.33;;;;;24.45;47.51;100844.88;5069454;28;45401;-65
2021/09/17 07:44:43;;;;;;;;;132.33;126.33;;;;;24.43;47.37;100846.78;5073526;28;45456;-65
2021/09/17 07:47:09;;;;;;;;;97.33;94.00;;;;;24.47;47.11;100857.44;5071691;28;45900;-66
2021/09/17 07:49:35;;;;;;;;;267.33;250.33;;;;;24.47;46.83;100854.72;5071841;28;45362;-66
2021/09/17 07:52:00;;;;;;;;;152.67;142.33;;;;;24.49;46.83;100852.84;5055946;28;45417;-65
2021/09/17 07:54:27;;;;;;;;;146.67;138.00;;;;;24.46;45.95;100841.19;5046269;28;45460;-66
2021/09/17 07:56:52;;;;;;;;;127.33;125.00;;;;;24.54;45.81;100863.53;5040804;28;45373;-66
2021/09/17 07:59:18;;;;;;;;;249.00;236.50;;;;;24.52;46.17;100857.28;5039509;28;45382;-64
2021/09/17 08:01:44;;;;;;;;;58.25;48.25;;;;;24.49;45.42;100858.28;5021713;28;45512;-65
2021/09/17 08:04:09;;;;;;;;;53.25;44.50;;;;;24.51;45.60;100858.25;5033660;28;45613;-65
2021/09/17 08:06:34;;;;;;;;;140.50;136.75;;;;;24.51;45.98;100859.13;5048170;28;45889;-64
2021/09/17 08:09:00;;;;;;;;;33.67;30.67;;;;;24.50;45.43;100857.38;5055839;28;46280;-64
2021/09/17 08:11:25;;;;;;;;;62.50;50.75;;;;;24.51;45.48;100855.53;5056210;28;45480;-65
2021/09/17 08:13:51;;;;;;;;;135.67;129.00;;;;;24.49;45.80;100849.22;5056432;28;45478;-64
2021/09/17 08:16:17;;;;;;;;;75.25;69.00;;;;;24.52;45.72;100851.84;5056526;28;45436;-64
2021/09/17 08:18:45;;;;;;;;;52.75;43.50;;;;;24.54;45.78;100853.56;5034129;28;46148;-64
2021/09/17 08:21:10;;;;;;;;;124.67;121.67;;;;;24.55;45.76;100855.31;5054407;28;45720;-64
2021/09/17 08:23:36;;;;;;;;;54.25;46.50;;;;;24.54;45.58;100853.56;5056083;28;45420;-61
2021/09/17 08:26:03;;;;;;;;;221.75;211.50;;;;;24.53;46.10;100857.22;5056477;28;45392;-62
2021/09/17 08:28:29;;;;;;;;;123.00;119.67;;;;;24.55;45.94;100847.16;5037980;28;46240;-64
2021/09/17 08:30:59;;;;;;;;;26.00;23.33;;;;;24.58;45.41;100851.59;5056380;28;45538;-63
2021/09/17 08:33:25;;;;;;;;;73.00;66.25;;;;;24.61;45.80;100854.19;5056251;28;45545;-61
2021/09/17 08:35:50;;;;;;;;;381.33;362.00;;;;;24.65;46.72;100852.22;5053833;28;45482;-63
2021/09/17 08:38:15;;;;;;;;;8.25;7.75;;;;;24.63;45.52;100845.97;5055668;28;45586;-62
2021/09/17 08:40:42;;;;;;;;;49.00;40.50;;;;;24.60;45.60;100840.66;5055495;28;44830;-62
2021/09/17 08:43:08;;;;;;;;;42.25;36.25;;;;;24.68;45.27;100857.50;5055850;28;45460;-63
2021/09/17 08:45:33;;;;;;;;;110.75;105.50;;;;;24.67;45.41;100855.75;5056020;28;45479;-64
2021/09/17 08:47:59;;;;;;;;;134.25;126.75;;;;;24.63;44.90;100849.56;5055917;28;45409;-63
2021/09/17 08:50:25;;;;;;;;;98.75;91.25;;;;;24.64;45.13;100850.44;5055740;28;45433;-64
2021/09/17 08:52:52;;;;;;;;;12.33;12.33;;;;;24.65;44.87;100854.94;5036105;28;45686;-63
2021/09/17 08:55:18;;;;;;;;;127.00;122.00;;;;;24.66;44.46;100848.53;5051772;28;45524;-63
2021/09/17 08:57:45;;;;;;;;;40.33;35.00;;;;;24.64;44.26;100851.34;5045498;28;45860;-63
2021/09/17 09:00:30;;;;;;;;;70.50;60.00;;;;;24.59;44.75;100847.06;5042753;28;45552;-63
2021/09/17 09:02:57;;;;;;;;;14.00;13.00;;;;;24.59;44.64;100847.06;5031570;28;45382;-63
2021/09/17 09:05:33;;;;;;;;;169.67;166.00;;;;;24.66;44.62;100843.09;5055137;28;45362;-65
2021/09/17 09:08:02;;;;;;;;;44.25;38.25;;;;;24.66;44.31;100848.53;5055542;28;45525;-64
2021/09/17 09:10:27;;;;;;;;;10.33;10.33;;;;;24.64;43.91;100843.19;5037304;28;45854;-63
2021/09/17 09:12:55;;;;;;;;;17.33;17.33;;;;;24.59;43.48;100837.06;5055456;28;45452;-66
2021/09/17 09:15:32;;;;;;;;;9.33;9.33;;;;;24.56;43.47;100837.16;5051384;28;45546;-63
2021/09/17 09:18:11;;;;;;;;;83.25;75.25;;;;;24.49;43.54;100846.53;5054838;28;45416;-64
2021/09/17 09:20:48;;;;;;;;;9.00;9.00;;;;;24.45;43.97;100845.75;5037176;28;45539;-62
2021/09/17 09:23:15;;;;;;;;;69.75;60.00;;;;;24.44;44.19;100834.94;5053958;28;45533;-63
2021/09/17 09:25:52;;;;;;;;;74.00;65.00;;;;;24.49;43.50;100841.94;5054970;28;45522;-63
2021/09/17 09:28:22;;;;;;;;;72.25;64.00;;;;;24.54;44.28;100841.78;5055512;28;46449;-64
2021/09/17 09:30:47;;;;;;;;;81.75;76.00;;;;;24.58;44.68;100828.94;5055045;28;45469;-64
2021/09/17 09:33:25;;;;;;;;;173.25;159.75;;;;;24.65;44.72;100830.47;5037049;28;45527;-63
2021/09/17 09:36:09;;;;;;;;;32.33;28.00;;;;;24.71;43.84;100832.91;5055573;28;45361;-63
2021/09/17 09:38:54;;;;;;;;;204.00;197.50;;;;;24.79;44.74;100830.75;5034800;28;45692;-64
2021/09/17 09:41:27;;;;;;;;;53.75;44.50;;;;;24.82;44.31;100819.72;5037946;28;45824;-63
2021/09/17 09:44:00;;;;;;;;;177.50;167.50;;;;;24.91;44.53;100835.66;5034934;28;45488;-64
2021/09/17 09:46:30;;;;;;;;;74.75;66.50;;;;;24.98;43.72;100827.22;5036189;28;45488;-63
2021/09/17 09:48:59;;;;;;;;;249.25;238.75;;;;;25.02;44.85;100823.41;5036705;28;47953;-64
2021/09/17 09:51:27;;;;;;;;;94.25;90.25;;;;;25.06;43.46;100819.59;5037118;28;45633;-63
2021/09/17 09:53:52;;;;;;;;;41.50;36.00;;;;;25.07;43.45;100818.66;5028776;28;45481;-62
2021/09/17 09:56:20;;;;;;;;;88.75;81.25;;;;;25.11;43.85;100825.72;5033287;28;45532;-62
2021/09/17 09:58:50;;;;;;;;;36.00;32.67;;;;;25.13;43.62;100826.53;5035554;28;45377;-63
2021/09/17 10:01:22;;;;;;;;;129.00;125.00;;;;;25.20;44.07;100822.56;5052849;28;45683;-64
2021/09/17 10:03:53;;;;;;;;;321.60;304.60;;;;;25.25;44.20;100815.13;5054650;28;45395;-64
2021/09/17 10:06:20;;;;;;;;;103.33;97.67;;;;;25.28;43.98;100814.09;5038517;28;45035;-63
2021/09/17 10:08:46;;;;;;;;;173.50;165.00;;;;;25.32;44.54;100819.31;5054232;28;45451;-63
2021/09/17 10:11:12;;;;;;;;;117.50;114.00;;;;;25.37;43.96;100813.69;5052127;28;45465;-63
2021/09/17 10:13:38;;;;;;;;;98.50;91.00;;;;;25.41;43.50;100815.31;5033592;28;45853;-62
2021/09/17 10:16:05;;;;;;;;;84.25;81.00;;;;;25.43;43.60;100805.22;5054598;28;45797;-63
2021/09/17 10:18:31;;;;;;;;;82.50;78.50;;;;;25.46;43.63;100806.91;5031472;28;45505;-63
2021/09/17 10:20:57;;;;;;;;;53.75;44.50;;;;;25.48;43.17;100805.00;5016099;28;45453;-65
2021/09/17 10:23:26;;;;;;;;;66.75;54.50;;;;;25.48;42.96;100796.81;5034314;28;45485;-63
2021/09/17 10:26:06;;;;;;;;;274.50;263.25;;;;;25.53;44.03;100795.66;5034459;28;45496;-63
2021/09/17 10:28:33;;;;;;;;;223.00;215.00;;;;;25.58;43.99;100806.31;5034283;28;45518;-63
2021/09/17 10:31:18;;;;;;;;;69.75;60.00;;;;;25.59;42.64;100797.19;5035614;28;45517;-63
2021/09/17 10:33:45;;;;;;;;;250.00;238.50;;;;;25.60;43.17;100804.41;5054303;28;45401;-64
2021/09/17 10:36:11;;;;;;;;;74.25;67.75;;;;;25.60;43.02;100804.41;5054272;28;45573;-63
2021/09/17 10:38:37;;;;;;;;;153.00;144.67;;;;;25.63;43.20;100803.38;5054029;28;45301;-63
2021/09/17 10:41:07;;;;;;;;;83.00;78.50;;;;;25.65;42.39;100796.91;5053197;28;45378;-64
2021/09/17 10:43:46;;;;;;;;;199.75;189.50;;;;;25.69;42.63;100804.00;5035513;28;45557;-63
2021/09/17 10:46:21;;;;;;;;;113.67;110.00;;;;;25.71;42.39;100796.63;5035912;28;45503;-62
2021/09/17 10:48:52;;;;;;;;;43.00;37.00;;;;;25.72;41.69;100792.94;5053777;28;46204;-62
2021/09/17 10:51:38;;;;;;;;;338.20;324.80;;;;;25.74;42.34;100793.72;5053865;28;45591;-63
2021/09/17 10:54:35;;;;;;;;;177.33;167.67;;;;;25.71;42.29;100774.84;5034019;28;45581;-65
2021/09/17 10:57:06;;;;;;;;;117.00;115.33;;;;;25.77;42.55;100775.47;5049920;28;45471;-63
2021/09/17 10:59:42;;;;;;;;;78.00;73.00;;;;;25.79;42.70;100779.88;5051643;28;46406;-63
2021/09/17 11:02:09;;;;;;;;;280.50;264.50;;;;;25.81;42.36;100780.69;5053726;28;45447;-63
2021/09/17 11:04:43;;;;;;;;;249.00;237.50;;;;;25.83;42.49;100783.34;5054230;28;45436;-64